Time;durP1;ratioP1;P1;durP2;ratioP2;P2;SDS_P1;SDS_P2;PMS_P1;PMS_P2;Temp;Humidity;BMP_temperature;BMP_pressure;BME280_temperature;BME280_humidity;BME280_pressure;Samples;Min_cycle;Max_cycle;Signal;HPM_P1;HPM_P2
2023/07/24 00:05:49;;;;;;;1.52;0.80;;;;;;;;;;20939109;28;20279;-81
2023/07/24 00:15:51;;;;;;;1.60;0.73;;;;;;;;;;20952069;28;20264;-84
2023/07/24 00:25:54;;;;;;;2.00;0.93;;;;;;;;;;20956659;28;20237;-80
2023/07/24 00:35:57;;;;;;;3.08;1.00;;;;;;;;;;20957237;28;20245;-80
2023/07/24 00:45:58;;;;;;;2.35;1.25;;;;;;;;;;20941803;28;20281;-80
2023/07/24 00:56:00;;;;;;;2.00;1.10;;;;;;;;;;20937612;28;20245;-79
2023/07/24 01:06:02;;;;;;;1.80;1.00;;;23.20;98.90;;;;;;21017502;28;20230;-83
2023/07/24 01:16:09;;;;;;;1.23;0.73;;;;;;;;;;20979764;28;20296;-82
2023/07/24 01:26:11;;;;;;;1.85;1.08;;;;;;;;;;21007164;28;20246;-82
2023/07/24 01:36:14;;;;;;;2.40;1.20;;;;;;;;;;20978208;28;20715;-82
2023/07/24 01:46:16;;;;;;;5.88;1.30;;;;;;;;;;20941241;28;20577;-82
2023/07/24 01:56:18;;;;;;;2.10;1.20;;;;;;;;;;20960801;28;20241;-82
2023/07/24 02:06:20;;;;;;;1.92;1.10;;;;;;;;;;20924399;28;20292;-83
2023/07/24 02:16:22;;;;;;;2.40;1.23;;;;;;;;;;20933482;28;20686;-81
2023/07/24 02:26:24;;;;;;;2.33;1.20;;;;;;;;;;20954579;28;20294;-82
2023/07/24 02:36:25;;;;;;;3.13;1.20;;;;;;;;;;20954899;28;20250;-82
2023/07/24 02:46:28;;;;;;;2.75;1.33;;;;;;;;;;20954671;28;20223;-81
2023/07/24 02:56:30;;;;;;;2.35;1.20;;;;;;;;;;20950693;28;20306;-83
2023/07/24 03:06:32;;;;;;;2.88;0.98;;;22.40;99.90;;;;;;20933696;28;20237;-82
2023/07/24 03:16:34;;;;;;;1.67;1.17;;;;;;;;;;20940300;28;20234;-81
2023/07/24 03:26:36;;;;;;;1.67;1.13;;;;;;;;;;20934096;28;20236;-83
2023/07/24 03:36:41;;;;;;;1.88;1.10;;;;;;;;;;20930322;28;20233;-83
2023/07/24 03:46:42;;;;;;;2.58;1.35;;;;;;;;;;20896023;28;20228;-81
2023/07/24 03:56:46;;;;;;;3.57;1.87;;;;;;;;;;20930715;28;20244;-83
2023/07/24 04:06:47;;;;;;;2.35;1.50;;;;;;;;;;20991998;28;20222;-82
2023/07/24 04:16:50;;;;;;;2.37;1.37;;;;;;;;;;20900397;28;20231;-82
2023/07/24 04:26:51;;;;;;;2.33;1.48;;;;;;;;;;20960989;28;20224;-84
2023/07/24 04:36:54;;;;;;;3.30;1.67;;;;;;;;;;20938566;28;20226;-87
2023/07/24 04:46:57;;;;;;;2.78;1.77;;;;;;;;;;20965610;28;20235;-83
2023/07/24 04:57:01;;;;;;;2.43;1.57;;;;;;;;;;20945376;28;20334;-85
2023/07/24 05:07:03;;;;;;;3.13;1.60;;;;;;;;;;20982886;28;20776;-82
2023/07/24 05:17:05;;;;;;;2.97;2.00;;;;;;;;;;20927930;28;20280;-82
2023/07/24 05:27:07;;;;;;;3.80;1.60;;;;;;;;;;20957601;28;20305;-82
2023/07/24 05:37:09;;;;;;;3.77;1.57;;;;;;;;;;20976392;28;20238;-84
2023/07/24 05:47:11;;;;;;;3.63;1.93;;;;;;;;;;20923222;28;20221;-84
2023/07/24 05:57:12;;;;;;;2.27;1.23;;;;;;;;;;20910211;28;20584;-83
2023/07/24 06:07:14;;;;;;;3.20;1.87;;;;;;;;;;20968064;28;20288;-83
2023/07/24 06:17:16;;;;;;;3.20;1.97;;;;;;;;;;20977632;28;20668;-83
2023/07/24 06:27:18;;;;;;;4.53;2.17;;;;;;;;;;20927479;28;20223;-87
2023/07/24 06:37:23;;;;;;;3.93;1.77;;;;;;;;;;20906280;28;20227;-85
2023/07/24 06:47:25;;;;;;;3.63;1.63;;;;;;;;;;20939870;28;20259;-86
2023/07/24 06:57:26;;;;;;;3.33;2.00;;;;;;;;;;20940941;28;20249;-83
2023/07/24 07:07:31;;;;;;;3.47;1.67;;;;;;;;;;20973378;28;20644;-84
2023/07/24 07:17:33;;;;;;;3.38;1.98;;;;;;;;;;20984652;28;20240;-83
2023/07/24 07:27:34;;;;;;;4.53;2.22;;;;;;;;;;20966783;28;20251;-84
2023/07/24 07:37:48;;;;;;;2.53;1.77;;;;;;;;;;20989355;28;20229;-85
2023/07/24 07:47:53;;;;;;;2.80;1.43;;;;;;;;;;20985872;28;20219;-83
2023/07/24 07:57:57;;;;;;;2.45;1.40;;;;;;;;;;20963293;28;20772;-86
2023/07/24 08:08:08;;;;;;;2.58;1.75;;;;;;;;;;20954349;28;20218;-86
2023/07/24 08:18:23;;;;;;;4.18;1.67;;;;;;;;;;20924764;28;20621;-85
2023/07/24 08:28:30;;;;;;;2.88;1.95;;;;;;;;;;20959186;28;20658;-86
2023/07/24 08:38:49;;;;;;;2.53;1.40;;;;;;;;;;20919003;22;20617;31
2023/07/24 08:48:52;;;;;;;5.30;2.58;;;;;;;;;;20858963;28;20225;-68
2023/07/24 08:58:54;;;;;;;2.85;1.77;;;;;;;;;;20830563;28;20252;-68
2023/07/24 09:08:56;;;;;;;2.03;1.27;;;;;;;;;;20853192;28;20273;-68
2023/07/24 09:18:58;;;;;;;2.63;1.30;;;;;;;;;;20879680;28;20257;-69
2023/07/24 09:29:00;;;;;;;1.60;1.10;;;;;;;;;;20860335;28;20220;-69
2023/07/24 09:39:06;;;;;;;2.03;1.00;;;;;;;;;;20841828;28;20233;-67
2023/07/24 09:49:07;;;;;;;1.45;1.10;;;;;;;;;;20853027;28;20218;-67
2023/07/24 09:59:10;;;;;;;2.25;1.08;;;;;;;;;;20830319;28;20212;-68
2023/07/24 10:09:12;;;;;;;2.10;1.20;;;24.30;99.90;;;;;;20849784;28;20218;-69
2023/07/24 10:19:18;;;;;;;1.75;0.95;;;;;;;;;;20843656;28;20212;-67
2023/07/24 10:29:20;;;;;;;2.13;0.95;;;;;;;;;;20849976;28;20582;-67
2023/07/24 10:39:22;;;;;;;4.03;1.40;;;;;;;;;;20857197;28;20599;-66
2023/07/24 10:49:24;;;;;;;2.65;1.60;;;;;;;;;;20835614;28;20283;-65
2023/07/24 10:59:36;;;;;;;1.90;1.20;;;;;;;;;;20846097;28;20222;-66
2023/07/24 11:09:40;;;;;;;2.10;1.30;;;;;;;;;;20865057;28;20273;-67
2023/07/24 11:19:41;;;;;;;2.63;1.58;;;;;;;;;;20861192;28;20268;-66
2023/07/24 11:29:49;;;;;;;2.25;1.55;;;24.80;99.90;;;;;;20847681;28;20226;-69
2023/07/24 11:40:10;;;;;;;5.63;1.42;;;;;;;;;;20842219;28;20594;-68
2023/07/24 11:50:12;;;;;;;3.15;1.65;;;;;;;;;;20847623;28;20228;-69
2023/07/24 12:00:21;;;;;;;2.03;1.35;;;;;;;;;;20846327;28;20517;-69
2023/07/24 12:10:27;;;;;;;4.60;2.05;;;24.50;99.90;;;;;;20862044;28;20278;-67
2023/07/24 12:20:30;;;;;;;3.47;1.52;;;;;;;;;;20846482;28;20212;-67
2023/07/24 12:30:32;;;;;;;2.58;1.38;;;;;;;;;;20842380;28;20220;-68
2023/07/24 12:40:33;;;;;;;2.28;1.50;;;;;;;;;;20861312;28;20596;-67
2023/07/24 12:50:35;;;;;;;2.67;1.35;;;;;;;;;;20905866;28;20227;-67
2023/07/24 13:00:37;;;;;;;2.70;1.45;;;;;;;;;;20883581;28;20216;-69
2023/07/24 13:10:39;;;;;;;2.53;1.52;;;;;;;;;;20886847;28;20288;-68
2023/07/24 13:20:41;;;;;;;3.13;1.67;;;;;;;;;;20855232;28;20219;-70
2023/07/24 13:30:43;;;;;;;3.75;1.15;;;;;;;;;;20852850;28;20232;-73
2023/07/24 13:40:45;;;;;;;2.80;1.52;;;;;;;;;;20871778;28;20235;-71
2023/07/24 13:50:47;;;;;;;2.22;1.42;;;;;;;;;;20869495;28;20272;-67
2023/07/24 14:00:49;;;;;;;3.45;1.83;;;;;;;;;;20874822;28;20216;-69
2023/07/24 14:10:51;;;;;;;5.85;2.13;;;;;;;;;;20851586;28;20300;-72
2023/07/24 14:20:55;;;;;;;3.05;1.83;;;;;;;;;;20870103;28;20301;-71
2023/07/24 14:30:57;;;;;;;2.38;1.60;;;;;;;;;;20865426;28;20286;-71
2023/07/24 14:40:59;;;;;;;2.15;1.10;;;;;;;;;;20845196;28;20796;-71
2023/07/24 14:51:00;;;;;;;1.00;0.82;;;;;;;;;;20868863;28;20229;-70
2023/07/24 15:01:02;;;;;;;1.00;0.68;;;;;;;;;;20828856;28;20269;-70
2023/07/24 15:11:04;;;;;;;1.25;0.82;;;;;;;;;;20859516;28;20251;-70
2023/07/24 15:21:06;;;;;;;1.20;0.77;;;;;;;;;;20843695;28;20212;-69
2023/07/24 15:31:09;;;;;;;1.02;0.68;;;;;;;;;;20847867;28;20285;-68
2023/07/24 15:41:11;;;;;;;2.15;0.82;;;;;;;;;;20840502;28;20227;-70
2023/07/24 15:51:13;;;;;;;1.17;0.70;;;;;;;;;;20840972;28;20300;-69
2023/07/24 16:01:16;;;;;;;0.55;0.40;;;;;;;;;;20903080;28;20243;-70
2023/07/24 16:11:19;;;;;;;0.68;0.40;;;;;;;;;;20861988;28;20307;-70
2023/07/24 16:21:26;;;;;;;0.40;0.32;;;;;;;;;;20859403;28;20212;-68
2023/07/24 16:31:28;;;;;;;1.75;0.47;;;;;;;;;;20845029;28;20232;-70
2023/07/24 16:41:30;;;;;;;0.40;0.40;;;;;;;;;;20860070;28;20241;-69
2023/07/24 16:51:32;;;;;;;0.90;0.50;;;;;;;;;;20871859;28;20224;-69
2023/07/24 17:01:34;;;;;;;0.32;0.30;;;;;;;;;;20897083;28;20254;-69
2023/07/24 17:11:36;;;;;;;1.05;0.55;;;;;;;;;;20861134;28;20244;-68
2023/07/24 17:21:38;;;;;;;0.50;0.40;;;;;;;;;;20859132;28;20277;-68
2023/07/24 17:31:42;;;;;;;1.77;0.60;;;;;;;;;;20843878;28;20682;-69
2023/07/24 17:41:45;;;;;;;2.88;0.43;;;;;;;;;;20911093;28;20231;-68
2023/07/24 17:51:47;;;;;;;0.90;0.40;;;;;;;;;;20870386;28;20227;-67
2023/07/24 18:01:49;;;;;;;0.65;0.40;;;;;;;;;;20847857;28;20874;-68
2023/07/24 18:11:51;;;;;;;0.40;0.32;;;;;;;;;;20888813;28;20228;-68
2023/07/24 18:21:53;;;;;;;2.08;0.38;;;;;;;;;;20874699;28;20269;-68
2023/07/24 18:31:56;;;;;;;2.35;0.47;;;;;;;;;;20861037;28;20293;-68
2023/07/24 18:41:58;;;;;;;0.98;0.50;;;;;;;;;;20867787;28;20219;-68
2023/07/24 18:52:00;;;;;;;0.30;0.30;;;;;;;;;;20849325;28;20614;-68
2023/07/24 19:02:01;;;;;;;1.98;0.57;;;;;;;;;;20857990;28;20225;-68
2023/07/24 19:12:04;;;;;;;0.75;0.50;;;;;;;;;;20894210;28;20272;-68
2023/07/24 19:22:06;;;;;;;0.30;0.20;;;;;;;;;;20884865;28;20217;-68
2023/07/24 19:32:08;;;;;;;1.00;0.40;;;;;;;;;;20809830;23;20710;-70
2023/07/24 19:42:10;;;;;;;0.60;0.38;;;;;;;;;;20834643;28;20279;-71
2023/07/24 19:52:12;;;;;;;0.85;0.50;;;;;;;;;;20808534;28;20305;-70
2023/07/24 20:02:14;;;;;;;0.77;0.43;;;;;;;;;;20856534;28;20444;-70
2023/07/24 20:12:17;;;;;;;0.40;0.30;;;;;;;;;;20856553;28;20286;-70
2023/07/24 20:22:19;;;;;;;3.78;0.50;;;;;;;;;;20815576;28;20209;-70
2023/07/24 20:32:21;;;;;;;0.52;0.40;;;;;;;;;;20853746;28;20254;-70
2023/07/24 20:42:24;;;;;;;2.63;0.68;;;;;;;;;;20836673;28;20268;-70
2023/07/24 20:52:26;;;;;;;0.77;0.40;;;;;;;;;;20843965;28;20292;-70
2023/07/24 21:02:28;;;;;;;0.60;0.43;;;;;;;;;;20895421;28;20281;-70
2023/07/24 21:12:29;;;;;;;1.20;0.40;;;;;;;;;;20842793;28;20251;-70
2023/07/24 21:22:32;;;;;;;0.82;0.50;;;;;;;;;;20844521;28;20224;-70
2023/07/24 21:32:33;;;;;;;0.77;0.47;;;;;;;;;;20882366;28;20231;-70
2023/07/24 21:42:36;;;;;;;0.85;0.43;;;;;;;;;;20892540;28;20239;-70
2023/07/24 21:52:38;;;;;;;2.03;0.57;;;;;;;;;;20837014;28;20232;-69
2023/07/24 22:02:40;;;;;;;0.55;0.45;;;;;;;;;;20842875;28;20270;-69
2023/07/24 22:12:42;;;;;;;1.02;0.47;;;;;;;;;;20857541;28;20233;-70
2023/07/24 22:22:43;;;;;;;0.52;0.40;;;;;;;;;;20863373;28;20286;-70
2023/07/24 22:32:45;;;;;;;0.73;0.40;;;;;;;;;;20878829;28;20283;-69
2023/07/24 22:42:47;;;;;;;1.77;0.80;;;;;;;;;;20871987;28;20286;-69
2023/07/24 22:52:49;;;;;;;0.73;0.50;;;;;;;;;;20825731;28;20232;-69
2023/07/24 23:02:51;;;;;;;0.63;0.47;;;;;;;;;;20854044;28;20228;-69
2023/07/24 23:12:53;;;;;;;0.73;0.40;;;;;;;;;;20868312;28;20281;-69
2023/07/24 23:22:54;;;;;;;0.73;0.40;;;;;;;;;;20852864;28;20304;-69
2023/07/24 23:32:56;;;;;;;0.65;0.32;;;;;;;;;;20820088;28;20237;-69
2023/07/24 23:42:58;;;;;;;3.22;0.50;;;;;;;;;;20873705;28;20271;-69
2023/07/24 23:53:01;;;;;;;1.13;0.60;;;;;;;;;;20900011;28;20361;-70
